ADDS METAR Data INFO
IDs: Format: Raw Decoded Include TAF

Data at: 0441 UTC 24 Apr 2018

KLZZ 240435Z AUTO 15003KT 10SM CLR 16/08 A3005 RMK AO2 T01580083
KLZZ 240415Z AUTO 00000KT 10SM CLR 16/09 A3004 RMK AO2 T01610085
KLZZ 240355Z AUTO 00000KT 10SM CLR 19/08 A3004 RMK AO2 T01860081
KLZZ 240335Z AUTO 02004KT 10SM CLR 19/08 A3003 RMK AO2 T01900082
KLZZ 240315Z AUTO 02005KT 10SM CLR 20/08 A3002 RMK AO2 T01950081
KLZZ 240255Z AUTO 02005KT 10SM CLR 20/08 A3002 RMK AO2 T02000080
KLZZ 240235Z AUTO 03003KT 10SM CLR 20/08 A3003 RMK AO2 T02040078
KLZZ 240215Z AUTO 03003KT 10SM CLR 21/08 A3002 RMK AO2 T02050078
KLZZ 240155Z AUTO 00000KT 10SM CLR 21/08 A3002 RMK AO2 T02130078
KLZZ 240135Z AUTO 03003KT 10SM CLR 22/08 A3001 RMK AO2 T02190080
KLZZ 240115Z AUTO 01004KT 10SM CLR 22/08 A3001 RMK AO2 T02200078
KLZZ 240055Z AUTO 01003KT 10SM CLR 23/08 A3000 RMK AO2 T02310077
KLZZ 240035Z AUTO 00000KT 10SM CLR 24/08 A3000 RMK AO2 T02410075
KLZZ 240015Z AUTO 01003KT 10SM CLR 25/07 A3000 RMK AO2 T02510067
KLZZ 232355Z AUTO 03006KT 10SM CLR 26/07 A2999 RMK AO2 T02550069 10265 20225
KLZZ 232335Z AUTO 01004KT 10SM CLR 26/07 A2999 RMK AO2 T02580069
KLZZ 232315Z AUTO 35005KT 10SM CLR 26/07 A2999 RMK AO2 T02610068
KLZZ 232255Z AUTO 03004KT 10SM CLR 26/07 A3000 RMK AO2 T02610071
KLZZ 232235Z AUTO 02005KT 10SM CLR 26/07 A3000 RMK AO2 T02610070
KLZZ 232215Z AUTO 35005KT 10SM CLR 26/07 A3000 RMK AO2 T02620073
KLZZ 232155Z AUTO 35006KT 310V010 10SM CLR 26/08 A3000 RMK AO2 T02640076
KLZZ 232135Z AUTO 33005KT 10SM CLR 26/07 A3001 RMK AO2 T02600074
KLZZ 232115Z AUTO 30008KT 10SM CLR 26/08 A3002 RMK AO2 T02610077
KLZZ 232055Z AUTO 32008KT 280V340 10SM CLR 26/08 A3003 RMK AO2 T02570075
KLZZ 232035Z AUTO 31004KT 10SM CLR 25/07 A3004 RMK AO2 T02540074
KLZZ 232015Z AUTO 30005KT 10SM CLR 25/08 A3005 RMK AO2 T02520076
KLZZ 231955Z AUTO 31005G14KT 10SM CLR 25/08 A3006 RMK AO2 T02470076
KLZZ 231935Z AUTO 28005KT 10SM CLR 25/08 A3007 RMK AO2 T02460079
KLZZ 231915Z AUTO 32006KT 10SM CLR 25/08 A3007 RMK AO2 T02450080
KLZZ 231855Z AUTO 31008G15KT 280V340 10SM CLR 24/08 A3009 RMK AO2 T02410078
KLZZ 231835Z AUTO 31004KT 10SM CLR 23/08 A3009 RMK AO2 T02330076
KLZZ 231815Z AUTO 32008KT 10SM CLR 24/08 A3011 RMK AO2 T02360077
KLZZ 231755Z AUTO 34004G14KT 10SM CLR 23/07 A3012 RMK AO2 T02290074 10229 20101
KLZZ 231735Z AUTO 32007KT 10SM CLR 22/07 A3013 RMK AO2 T02200071
KLZZ 231715Z AUTO 36006KT 10SM CLR 22/07 A3013 RMK AO2 T02190072
KLZZ 231655Z AUTO 36006KT 10SM CLR 22/07 A3013 RMK AO2 T02170071
KLZZ 231635Z AUTO 34006KT 10SM CLR 21/07 A3013 RMK AO2 T02090065
KLZZ 231615Z AUTO 36007KT 10SM CLR 21/07 A3014 RMK AO2 T02070066
KLZZ 231555Z AUTO 36009G15KT 10SM CLR 20/07 A3014 RMK AO2 T02010069
KLZZ 231535Z AUTO 34007KT 10SM CLR 20/07 A3014 RMK AO2 T01970072
KLZZ 231515Z AUTO 35008KT 10SM CLR 19/07 A3014 RMK AO2 T01890069
KLZZ 231455Z AUTO 01008KT 10SM CLR 18/07 A3014 RMK AO2 T01830068
KLZZ 231435Z AUTO 35008KT 10SM CLR 18/07 A3014 RMK AO2 T01760068
KLZZ 231415Z AUTO 32008KT 10SM CLR 17/07 A3014 RMK AO2 T01730065
KLZZ 231355Z AUTO 32006KT 10SM CLR 17/07 A3014 RMK AO2 T01690072
KLZZ 231335Z AUTO 32006KT 10SM CLR 16/07 A3014 RMK AO2 T01590071
KLZZ 231315Z AUTO 30004KT 10SM CLR 15/07 A3013 RMK AO2 T01500072
KLZZ 231255Z AUTO 00000KT 10SM CLR 14/07 A3013 RMK AO2 T01370067
KLZZ 231235Z AUTO 00000KT 10SM CLR 11/06 A3012 RMK AO2 T01130060
KLZZ 231215Z AUTO 00000KT 10SM CLR 10/06 A3011 RMK AO2 T01010057
KLZZ 231155Z AUTO 27004KT 10SM CLR 11/06 A3010 RMK AO2 T01060057 10119 20076
KLZZ 231135Z AUTO 28003KT 10SM CLR 11/06 A3009 RMK AO2 T01050057
KLZZ 231115Z AUTO 00000KT 10SM CLR 11/06 A3008 RMK AO2 T01050057
KLZZ 231055Z AUTO 27004KT 10SM CLR 10/06 A3008 RMK AO2 T01010057
KLZZ 231035Z AUTO 00000KT 10SM CLR 09/06 A3007 RMK AO2 T00910055
KLZZ 231015Z AUTO 00000KT 10SM CLR 10/06 A3007 RMK AO2 T01000055
KLZZ 230955Z AUTO 29003KT 10SM CLR 10/05 A3006 RMK AO2 T00970054
KLZZ 230935Z AUTO 29003KT 10SM CLR 10/05 A3006 RMK AO2 T00960054
KLZZ 230915Z AUTO 00000KT 10SM CLR 08/05 A3006 RMK AO2 T00790050
KLZZ 230855Z AUTO 00000KT 10SM CLR 08/05 A3006 RMK AO2 T00800050
KLZZ 230835Z AUTO 00000KT 10SM CLR 09/05 A3005 RMK AO2 T00930050
KLZZ 230815Z AUTO 34004KT 10SM CLR 12/06 A3005 RMK AO2 T01150055
KLZZ 230755Z AUTO 35004KT 10SM CLR 12/06 A3005 RMK AO2 T01190055
KLZZ 230735Z AUTO 00000KT 10SM CLR 08/05 A3005 RMK AO2 T00830050
KLZZ 230715Z AUTO 00000KT 10SM CLR 08/05 A3006 RMK AO2 T00760048
KLZZ 230655Z AUTO 00000KT 10SM CLR 09/05 A3007 RMK AO2 T00910052
KLZZ 230635Z AUTO 00000KT 10SM CLR 09/05 A3007 RMK AO2 T00900052
KLZZ 230615Z AUTO 00000KT 10SM CLR 10/05 A3007 RMK AO2 T01030052
KLZZ 230555Z AUTO 00000KT 10SM CLR 11/06 A3007 RMK AO2 T01070055 10212 20096 402240079
KLZZ 230535Z AUTO 00000KT 10SM CLR 10/05 A3007 RMK AO2 T00990054
KLZZ 230515Z AUTO 36004KT 10SM CLR 13/05 A3007 RMK AO2 T01310054
KLZZ 230455Z AUTO 35005KT 10SM CLR 14/05 A3007 RMK AO2 T01350054
KLZZ 230435Z AUTO 35004KT 10SM CLR 14/06 A3007 RMK AO2 T01350055
KLZZ 230415Z AUTO 36004KT 10SM CLR 14/06 A3007 RMK AO2 T01400056
KLZZ 230355Z AUTO 36004KT 10SM CLR 14/06 A3007 RMK AO2 T01440057
KLZZ 230335Z AUTO 34004KT 10SM CLR 14/06 A3007 RMK AO2 T01400058
KLZZ 230315Z AUTO 34004KT 10SM CLR 15/06 A3007 RMK AO2 T01520057
KLZZ 230255Z AUTO 35004KT 10SM CLR 15/06 A3006 RMK AO2 T01520059
KLZZ 230235Z AUTO 35003KT 10SM CLR 16/06 A3006 RMK AO2 T01550060
KLZZ 230215Z AUTO 35003KT 10SM CLR 16/06 A3006 RMK AO2 T01610059
KLZZ 230155Z AUTO 35004KT 10SM CLR 16/06 A3005 RMK AO2 T01640060
KLZZ 230135Z AUTO 00000KT 10SM CLR 17/06 A3005 RMK AO2 T01670063
KLZZ 230015Z AUTO 01004KT 10SM CLR 21/06 A3003 RMK AO2 T02050056
KLZZ 222355Z AUTO 36008KT 10SM CLR 21/06 A3003 RMK AO2 T02120060 10224 20185
KLZZ 222335Z AUTO 01006KT 10SM CLR 22/06 A3003 RMK AO2 T02160055
KLZZ 222315Z AUTO 35008KT 10SM CLR 22/06 A3002 RMK AO2 T02190055
KLZZ 222255Z AUTO 01006KT 10SM CLR 22/06 A3002 RMK AO2 T02190055
KLZZ 222235Z AUTO 34007G14KT 10SM CLR 22/06 A3002 RMK AO2 T02190062
KLZZ 222215Z AUTO 33006KT 300V360 10SM CLR 22/06 A3002 RMK AO2 T02180059
KLZZ 222155Z AUTO 31009KT 10SM CLR 22/06 A3003 RMK AO2 T02180059
KLZZ 222135Z AUTO 36010G14KT 10SM CLR 22/06 A3003 RMK AO2 T02160061
KLZZ 222055Z AUTO 34010G14KT 310V020 10SM CLR 21/07 A3005 RMK AO2 T02120066
KLZZ 222035Z AUTO 36010G14KT 330V040 10SM CLR 21/07 A3006 RMK AO2 T02090067
KLZZ 222015Z AUTO 34009KT 310V020 10SM CLR 21/07 A3006 RMK AO2 T02090068
KLZZ 221955Z AUTO 35011G16KT 10SM CLR 21/07 A3007 RMK AO2 T02070065
KLZZ 221915Z AUTO 35010G15KT 300V010 10SM CLR 21/07 A3009 RMK AO2 T02050068
KLZZ 221855Z AUTO 34010G14KT 310V020 10SM CLR 20/07 A3009 RMK AO2 T01950065
KLZZ 221835Z AUTO 33008G15KT 10SM CLR 20/07 A3009 RMK AO2 T01970069
KLZZ 221815Z AUTO 32010G15KT 10SM CLR 19/07 A3011 RMK AO2 T01920067
KLZZ 221755Z AUTO 33008G14KT 310V010 10SM CLR 19/07 A3011 RMK AO2 T01850067 10185 20100
KLZZ 221735Z AUTO 33008G16KT 10SM CLR 18/07 A3012 RMK AO2 T01840068
KLZZ 221715Z AUTO 33008G17KT 10SM CLR 18/07 A3013 RMK AO2 T01760069
KLZZ 221655Z AUTO 34009G16KT 310V010 10SM CLR 17/07 A3014 RMK AO2 T01710068